Time;durP1;ratioP1;P1;durP2;ratioP2;P2;SDS_P1;SDS_P2;PMS_P1;PMS_P2;Temp;Humidity;BMP_temperature;BMP_pressure;BME280_temperature;BME280_humidity;BME280_pressure;Samples;Min_cycle;Max_cycle;Signal;HPM_P1;HPM_P2
2023/02/20 00:00:26;;;;;;;;;;;;;;;;;;1031080;28;19906;-55
2023/02/20 00:00:56;;;;;;;;;;;;;;;;;;1031032;28;20013;-56
2023/02/20 00:01:27;;;;;;;;;;;;;;;;;;1031089;28;20004;-56
2023/02/20 00:01:58;;;;;;;;;;;;;;;;;;1031259;28;19913;-56
2023/02/20 00:02:30;;;;;;;;;;;;;;;;;;1030803;28;20349;-56
2023/02/20 00:03:01;;;;;;;;;;;;;;;;;;1031227;28;19913;-55
2023/02/20 00:03:32;;;;;;;;;;;;;;;;;;1031078;28;19913;-56
2023/02/20 00:04:03;;;;;;;;;;;;;;;;;;1031000;28;19990;-55
2023/02/20 00:04:34;;;;;;;;;;;;;;;;;;1030944;28;19905;-54
2023/02/20 00:05:05;;;;;;;;;;;;;;;;;;1031167;28;19989;-56
2023/02/20 00:05:36;;;;;;;;;;;;;;;;;;1030961;28;20009;-54
2023/02/20 00:06:07;;;;;;;;;;;;;;;;;;1028229;28;19910;-56
2023/02/20 00:06:38;;;;;;;;;;;;;;;;;;1027051;28;20020;-57
2023/02/20 00:07:09;;;;;;;;;;;;;;;;;;1029773;28;19913;-55
2023/02/20 00:07:40;;;;;;;;;;;;;;;;;;1031009;28;19913;-56
2023/02/20 00:08:10;;;;;;;;;;;;;;;;;;1031203;28;19910;-56
2023/02/20 00:08:41;;;;;;;;;;;;;;;;;;1031071;28;19945;-55
2023/02/20 00:09:12;;;;;;;;;;;;;;;;;;1031154;28;19910;-55
2023/02/20 00:09:43;;;;;;;;;;;;;;;;;;1031046;28;20004;-56
2023/02/20 00:10:14;;;;;;;;;;;;;;;;;;1030482;28;19917;-56
2023/02/20 00:10:45;;;;;;;;;;;;;;;;;;1030512;28;19945;-56
2023/02/20 00:11:16;;;;;;;;;;;;;;;;;;1030872;28;19909;-56
2023/02/20 00:11:47;;;;;;;;;;;;;;;;;;1030845;28;20032;-54
2023/02/20 00:12:17;;;;;;;;;;;;;;;;;;1031253;28;20084;-56
2023/02/20 00:12:48;;;;;;;;;;;;;;;;;;1030931;28;19910;-55
2023/02/20 00:13:19;;;;;;;;;;;;;;;;;;1031122;28;20395;-56
2023/02/20 00:13:50;;;;;;;;;;;;;;;;;;1031240;28;19914;-56
2023/02/20 00:14:22;;;;;;;;;;;;;;;;;;1032180;28;20341;-55
2023/02/20 00:14:53;;;;;;;;;;;;;;;;;;1032585;28;20083;-55
2023/02/20 00:15:23;;;;;;;;;;;;;;;;;;1032455;28;20388;-56
2023/02/20 00:15:54;;;;;;;;;;;;;;;;;;1032426;28;19953;-56
2023/02/20 00:16:25;;;;;;;;;;;;;;;;;;1032319;28;19933;-56
2023/02/20 00:16:56;;;;;;;;;;;;;;;;;;1032711;28;19909;-55
2023/02/20 00:17:27;;;;;;;;;;;;;;;;;;1032373;28;19941;-55
2023/02/20 00:17:58;;;;;;;;;;;;;;;;;;1032528;28;19917;-56
2023/02/20 00:18:29;;;;;;;;;;;;;;;;;;1032319;28;20008;-55
2023/02/20 00:19:00;;;;;;;;;;;;;;;;;;1032564;28;20011;-56
2023/02/20 00:19:31;;;;;;;;;;;;;;;;;;1032128;28;19920;-56
2023/02/20 00:20:02;;;;;;;;;;;;;;;;;;1032522;28;19913;-56
2023/02/20 00:20:33;;;;;;;;;;;;;;;;;;1032034;28;19945;-56
2023/02/20 00:21:03;;;;;;;;;;;;;;;;;;1032293;28;19913;-56
2023/02/20 00:21:34;;;;;;;;;;;;;;;;;;1032105;28;19913;-56
2023/02/20 00:22:05;;;;;;;;;;;;;;;;;;1029986;28;20004;-56
2023/02/20 00:22:36;;;;;;;;;;;;;;;;;;1032416;28;19916;-56
2023/02/20 00:23:07;;;;;;;;;;;;;;;;;;1028416;28;20016;-55
2023/02/20 00:23:38;;;;;;;;;;;;;;;;;;1028201;28;19919;-55
2023/02/20 00:24:09;;;;;;;;;;;;;;;;;;1031055;28;20000;-56
2023/02/20 00:24:40;;;;;;;;;;;;;;;;;;1032244;28;19910;-56
2023/02/20 00:25:10;;;;;;;;;;;;;;;;;;1029082;28;20518;-56
2023/02/20 00:25:41;;;;;;;;;;;;;;;;;;1028455;28;19910;-55
2023/02/20 00:26:12;;;;;;;;;;;;;;;;;;1029915;28;19909;-56
2023/02/20 00:26:43;;;;;;;;;;;;;;;;;;1032301;28;19909;-56
2023/02/20 00:27:14;;;;;;;;;;;;;;;;;;1032519;28;19971;-56
2023/02/20 00:27:45;;;;;;;;;;;;;;;;;;1032237;28;19910;-55
2023/02/20 00:28:16;;;;;;;;;;;;;;;;;;1032593;28;19941;-55
2023/02/20 00:28:47;;;;;;;;;;;;;;;;;;1032212;28;19952;-55
2023/02/20 00:29:17;;;;;;;;;;;;;;;;;;1032520;28;19952;-56
2023/02/20 00:29:48;;;;;;;;;;;;;;;;;;1032137;28;19919;-57
2023/02/20 00:30:19;;;;;;;;;;;;;;;;;;1032457;28;19917;-55
2023/02/20 00:30:50;;;;;;;;;;;;;;;;;;1032374;28;19909;-56
2023/02/20 00:31:21;;;;;;;;;;;;;;;;;;1032491;28;20016;-56
2023/02/20 00:31:52;;;;;;;;;;;;;;;;;;1032413;28;19909;-55
2023/02/20 00:32:23;;;;;;;;;;;;;;;;;;1032433;28;19937;-55
2023/02/20 00:32:54;;;;;;;;;;;;;;;;;;1032283;28;19964;-55
2023/02/20 00:33:25;;;;;;;;;;;;;;;;;;1032435;28;20016;-55
2023/02/20 00:33:55;;;;;;;;;;;;;;;;;;1032438;28;19911;-55
2023/02/20 00:34:26;;;;;;;;;;;;;;;;;;1032505;28;19905;-56
2023/02/20 00:34:57;;;;;;;;;;;;;;;;;;1032387;28;20362;-55
2023/02/20 00:35:28;;;;;;;;;;;;;;;;;;1032362;28;19964;-55
2023/02/20 00:35:59;;;;;;;;;;;;;;;;;;1032599;28;19932;-56
2023/02/20 00:36:30;;;;;;;;;;;;;;;;;;1032195;28;19913;-56
2023/02/20 00:37:01;;;;;;;;;;;;;;;;;;1032529;28;19906;-56
2023/02/20 00:37:32;;;;;;;;;;;;;;;;;;1032492;28;19997;-55
2023/02/20 00:38:02;;;;;;;;;;;;;;;;;;1032467;28;20436;-56
2023/02/20 00:38:33;;;;;;;;;;;;;;;;;;1030943;28;19906;-55
2023/02/20 00:39:04;;;;;;;;;;;;;;;;;;1028548;28;20321;-56
2023/02/20 00:39:35;;;;;;;;;;;;;;;;;;1028328;28;19914;-55
2023/02/20 00:40:06;;;;;;;;;;;;;;;;;;1031887;28;19910;-57
2023/02/20 00:40:37;;;;;;;;;;;;;;;;;;1028233;28;19996;-56
2023/02/20 00:41:10;;;;;;;;;;;;;;;;;;1028569;28;20389;-56
2023/02/20 00:41:40;;;;;;;;;;;;;;;;;;1031083;28;19917;-55
2023/02/20 00:42:11;;;;;;;;;;;;;;;;;;1032369;28;19944;-55
2023/02/20 00:42:42;;;;;;;;;;;;;;;;;;1032428;28;19909;-57
2023/02/20 00:43:13;;;;;;;;;;;;;;;;;;1032371;28;19906;-55
2023/02/20 00:43:44;;;;;;;;;;;;;;;;;;1032378;28;20053;-56
2023/02/20 00:44:15;;;;;;;;;;;;;;;;;;1032477;28;19912;-56
2023/02/20 00:44:46;;;;;;;;;;;;;;;;;;1032172;28;19906;-56
2023/02/20 00:45:17;;;;;;;;;;;;;;;;;;1032447;28;20683;-56
2023/02/20 00:45:47;;;;;;;;;;;;;;;;;;1032292;28;19914;-56
2023/02/20 00:46:18;;;;;;;;;;;;;;;;;;1032572;28;19917;-56
2023/02/20 00:46:49;;;;;;;;;;;;;;;;;;1032204;28;19906;-56
2023/02/20 00:47:20;;;;;;;;;;;;;;;;;;1032433;28;20000;-55
2023/02/20 00:47:51;;;;;;;;;;;;;;;;;;1032253;28;19968;-56
2023/02/20 00:48:22;;;;;;;;;;;;;;;;;;1032458;28;19913;-56
2023/02/20 00:48:53;;;;;;;;;;;;;;;;;;1032088;28;19948;-56
2023/02/20 00:49:23;;;;;;;;;;;;;;;;;;1032515;28;19906;-56
2023/02/20 00:49:54;;;;;;;;;;;;;;;;;;1032271;28;20639;-56
2023/02/20 00:50:25;;;;;;;;;;;;;;;;;;1032257;28;19906;-55
2023/02/20 00:50:56;;;;;;;;;;;;;;;;;;1032446;28;20416;-56
2023/02/20 00:51:27;;;;;;;;;;;;;;;;;;1032298;28;19913;-56
2023/02/20 00:51:58;;;;;;;;;;;;;;;;;;1032202;28;20324;-56
2023/02/20 00:52:29;;;;;;;;;;;;;;;;;;1032273;28;20309;-56
2023/02/20 00:52:59;;;;;;;;;;;;;;;;;;1032370;28;19906;-55
2023/02/20 00:53:30;;;;;;;;;;;;;;;;;;1031705;28;20344;-54
2023/02/20 00:54:01;;;;;;;;;;;;;;;;;;1032457;28;19914;-55
2023/02/20 00:54:32;;;;;;;;;;;;;;;;;;1032393;28;19910;-54
2023/02/20 00:55:03;;;;;;;;;;;;;;;;;;1032214;28;19960;-55
2023/02/20 00:55:34;;;;;;;;;;;;;;;;;;1030834;28;20314;-57
2023/02/20 00:56:05;;;;;;;;;;;;;;;;;;1028483;28;19968;-56
2023/02/20 00:56:35;;;;;;;;;;;;;;;;;;1028409;28;20731;-55
2023/02/20 00:57:06;;;;;;;;;;;;;;;;;;1032077;28;19910;-56
2023/02/20 00:57:37;;;;;;;;;;;;;;;;;;1028477;28;20277;-56
2023/02/20 00:58:08;;;;;;;;;;;;;;;;;;1028356;28;19996;-56
2023/02/20 00:58:39;;;;;;;;;;;;;;;;;;1028433;28;20317;-56
2023/02/20 00:59:10;;;;;;;;;;;;;;;;;;1031208;28;19929;-56
2023/02/20 00:59:41;;;;;;;;;;;;;;;;;;1032460;28;20044;-55
2023/02/20 01:00:11;;;;;;;;;;;;;;;;;;1032377;28;20004;-56
2023/02/20 01:00:42;;;;;;;;;;;;;;;;;;1032396;28;19910;-56
2023/02/20 01:01:15;;;;;;;;;;;;;;;;;;1032407;28;19960;-55
2023/02/20 01:01:46;;;;;;;;;;;;;;;;;;1032365;28;20000;-56
2023/02/20 01:02:17;;;;;;;;;;;;;;;;;;1032306;28;19913;-56
2023/02/20 01:02:47;;;;;;;;;;;;;;;;;;1032404;28;19910;-56
2023/02/20 01:03:18;;;;;;;;;;;;;;;;;;1032427;28;20451;-56
2023/02/20 01:03:49;;;;;;;;;;;;;;;;;;1032308;28;19910;-56
2023/02/20 01:04:20;;;;;;;;;;;;;;;;;;1032349;28;19996;-56
2023/02/20 01:04:51;;;;;;;;;;;;;;;;;;1032336;28;19910;-56
2023/02/20 01:05:22;;;;;;;;;;;;;;;;;;1032447;28;20277;-57
2023/02/20 01:05:53;;;;;;;;;;;;;;;;;;1032086;28;20012;-56
2023/02/20 01:06:24;;;;;;;;;;;;;;;;;;1032451;28;19914;-56
2023/02/20 01:06:55;;;;;;;;;;;;;;;;;;1032389;28;19937;-55
2023/02/20 01:07:25;;;;;;;;;;;;;;;;;;1032346;28;20551;-55
2023/02/20 01:07:56;;;;;;;;;;;;;;;;;;1032098;28;19909;-56
2023/02/20 01:08:27;;;;;;;;;;;;;;;;;;1028336;28;20274;-56
2023/02/20 01:08:58;;;;;;;;;;;;;;;;;;1028355;28;20042;-55
2023/02/20 01:09:29;;;;;;;;;;;;;;;;;;1032150;28;19912;-56
2023/02/20 01:10:00;;;;;;;;;;;;;;;;;;1031739;28;19913;-56
2023/02/20 01:10:31;;;;;;;;;;;;;;;;;;1028261;28;19984;-56
2023/02/20 01:11:01;;;;;;;;;;;;;;;;;;1031080;28;20048;-57
2023/02/20 01:11:32;;;;;;;;;;;;;;;;;;1032284;28;19909;-55
2023/02/20 01:12:03;;;;;;;;;;;;;;;;;;1032467;28;19913;-56
2023/02/20 01:12:34;;;;;;;;;;;;;;;;;;1032237;28;19993;-55
2023/02/20 01:13:05;;;;;;;;;;;;;;;;;;1032303;28;19949;-56
2023/02/20 01:13:36;;;;;;;;;;;;;;;;;;1032503;28;19910;-55
2023/02/20 01:14:07;;;;;;;;;;;;;;;;;;1032250;28;19909;-56
2023/02/20 01:14:37;;;;;;;;;;;;;;;;;;1032312;28;20668;-56
2023/02/20 01:15:08;;;;;;;;;;;;;;;;;;1032298;28;19960;-56
2023/02/20 01:15:39;;;;;;;;;;;;;;;;;;1032329;28;19937;-56
2023/02/20 01:16:10;;;;;;;;;;;;;;;;;;1032189;28;19910;-56
2023/02/20 01:16:41;;;;;;;;;;;;;;;;;;1032414;28;20012;-55
2023/02/20 01:17:13;;;;;;;;;;;;;;;;;;1032440;28;19910;-56
2023/02/20 01:17:44;;;;;;;;;;;;;;;;;;1032253;28;19913;-56
2023/02/20 01:18:14;;;;;;;;;;;;;;;;;;1032369;28;19909;-55
2023/02/20 01:18:45;;;;;;;;;;;;;;;;;;1032371;28;20004;-55
2023/02/20 01:19:16;;;;;;;;;;;;;;;;;;1032372;28;20001;-55
2023/02/20 01:19:47;;;;;;;;;;;;;;;;;;1030139;28;19909;-56
2023/02/20 01:20:18;;;;;;;;;;;;;;;;;;1028304;28;20369;-55
2023/02/20 01:20:49;;;;;;;;;;;;;;;;;;1027816;28;19918;-56
2023/02/20 01:21:20;;;;;;;;;;;;;;;;;;1031596;28;20671;-56
2023/02/20 01:21:50;;;;;;;;;;;;;;;;;;1032241;28;20024;-56
2023/02/20 01:22:21;;;;;;;;;;;;;;;;;;1032247;28;20361;-55
2023/02/20 01:22:52;;;;;;;;;;;;;;;;;;1032300;28;19916;-56
2023/02/20 01:23:23;;;;;;;;;;;;;;;;;;1032416;28;20044;-56
2023/02/20 01:23:54;;;;;;;;;;;;;;;;;;1032373;28;19910;-55
2023/02/20 01:24:25;;;;;;;;;;;;;;;;;;1032145;28;19917;-55
2023/02/20 01:24:56;;;;;;;;;;;;;;;;;;1030450;28;20399;-54
2023/02/20 01:25:26;;;;;;;;;;;;;;;;;;1028030;28;19989;-56
2023/02/20 01:25:57;;;;;;;;;;;;;;;;;;1027103;28;20340;-57
2023/02/20 01:26:29;;;;;;;;;;;;;;;;;;1031155;28;19910;-56
2023/02/20 01:27:00;;;;;;;;;;;;;;;;;;1031895;28;20542;-55
2023/02/20 01:27:30;;;;;;;;;;;;;;;;;;1031679;28;20713;-56
2023/02/20 01:28:01;;;;;;;;;;;;;;;;;;1031529;28;20000;-56
2023/02/20 01:28:32;;;;;;;;;;;;;;;;;;1031422;28;20403;-56
2023/02/20 01:29:03;;;;;;;;;;;;;;;;;;1031779;28;19909;-56
2023/02/20 01:29:34;;;;;;;;;;;;;;;;;;1031518;28;20424;-56
2023/02/20 01:30:05;;;;;;;;;;;;;;;;;;1031735;28;19960;-54
2023/02/20 01:30:36;;;;;;;;;;;;;;;;;;1031344;28;20403;-55
2023/02/20 01:31:06;;;;;;;;;;;;;;;;;;1031182;28;20759;-55
2023/02/20 01:31:37;;;;;;;;;;;;;;;;;;1031506;28;19910;-56
2023/02/20 01:32:08;;;;;;;;;;;;;;;;;;1031264;28;20405;-56
2023/02/20 01:32:39;;;;;;;;;;;;;;;;;;1031698;28;19910;-56
2023/02/20 01:33:10;;;;;;;;;;;;;;;;;;1031389;28;20374;-56
2023/02/20 01:33:41;;;;;;;;;;;;;;;;;;1031822;28;20569;-56
2023/02/20 01:34:12;;;;;;;;;;;;;;;;;;1031410;28;19910;-56
2023/02/20 01:34:43;;;;;;;;;;;;;;;;;;1031683;28;20487;-57
2023/02/20 01:35:13;;;;;;;;;;;;;;;;;;1031609;28;19909;-55
2023/02/20 01:35:44;;;;;;;;;;;;;;;;;;1031735;28;20910;-56
2023/02/20 01:36:15;;;;;;;;;;;;;;;;;;1030144;28;19993;-56
2023/02/20 01:36:46;;;;;;;;;;;;;;;;;;1031749;28;19965;-55
2023/02/20 01:37:18;;;;;;;;;;;;;;;;;;1031811;28;19913;-56
2023/02/20 01:37:49;;;;;;;;;;;;;;;;;;1031722;28;20576;-55
2023/02/20 01:38:20;;;;;;;;;;;;;;;;;;1028135;28;20436;-56
2023/02/20 01:38:51;;;;;;;;;;;;;;;;;;1031119;28;19939;-56
2023/02/20 01:39:21;;;;;;;;;;;;;;;;;;1031786;28;20143;-56
2023/02/20 01:39:52;;;;;;;;;;;;;;;;;;1030953;28;19980;-55
2023/02/20 01:40:23;;;;;;;;;;;;;;;;;;1029051;28;19934;-55
2023/02/20 01:40:54;;;;;;;;;;;;;;;;;;1027645;28;19910;-56
2023/02/20 01:41:25;;;;;;;;;;;;;;;;;;1028438;28;19910;-56
2023/02/20 01:41:56;;;;;;;;;;;;;;;;;;1031682;28;20415;-54
2023/02/20 01:42:27;;;;;;;;;;;;;;;;;;1031637;28;19929;-55
2023/02/20 01:42:57;;;;;;;;;;;;;;;;;;1031601;28;19957;-56
2023/02/20 01:43:28;;;;;;;;;;;;;;;;;;1031598;28;20011;-56
2023/02/20 01:43:59;;;;;;;;;;;;;;;;;;1031710;28;19917;-56
2023/02/20 01:44:30;;;;;;;;;;;;;;;;;;1031544;28;19909;-56
2023/02/20 01:45:01;;;;;;;;;;;;;;;;;;1031538;28;19996;-55
2023/02/20 01:45:32;;;;;;;;;;;;;;;;;;1031566;28;20022;-56
2023/02/20 01:46:03;;;;;;;;;;;;;;;;;;1031605;28;19909;-55
2023/02/20 01:46:34;;;;;;;;;;;;;;;;;;1031437;28;19972;-56
2023/02/20 01:47:05;;;;;;;;;;;;;;;;;;1031601;28;19921;-55
2023/02/20 01:47:35;;;;;;;;;;;;;;;;;;1031688;28;19937;-56
2023/02/20 01:48:06;;;;;;;;;;;;;;;;;;1031593;28;20361;-56
2023/02/20 01:48:37;;;;;;;;;;;;;;;;;;1031564;28;19992;-55
2023/02/20 01:49:08;;;;;;;;;;;;;;;;;;1031461;28;19932;-56
2023/02/20 01:49:39;;;;;;;;;;;;;;;;;;1031703;28;19916;-56
2023/02/20 01:50:10;;;;;;;;;;;;;;;;;;1031473;28;19993;-55
2023/02/20 01:50:41;;;;;;;;;;;;;;;;;;1031586;28;19914;-55
2023/02/20 01:51:11;;;;;;;;;;;;;;;;;;1031416;28;19916;-56
2023/02/20 01:51:42;;;;;;;;;;;;;;;;;;1031508;28;19996;-56
2023/02/20 01:52:13;;;;;;;;;;;;;;;;;;1031521;28;19921;-57
2023/02/20 01:52:44;;;;;;;;;;;;;;;;;;1031666;28;19909;-55
2023/02/20 01:53:15;;;;;;;;;;;;;;;;;;1031539;28;19906;-55
2023/02/20 01:53:46;;;;;;;;;;;;;;;;;;1031530;28;19906;-55
2023/02/20 01:54:17;;;;;;;;;;;;;;;;;;1031210;28;19945;-56
2023/02/20 01:54:47;;;;;;;;;;;;;;;;;;1027624;28;20143;-56
2023/02/20 01:55:18;;;;;;;;;;;;;;;;;;1030669;28;19952;-55
2023/02/20 01:55:49;;;;;;;;;;;;;;;;;;1028015;28;19906;-55
2023/02/20 01:56:20;;;;;;;;;;;;;;;;;;1027525;28;19988;-54
2023/02/20 01:56:51;;;;;;;;;;;;;;;;;;1029418;28;19906;-56
2023/02/20 01:57:22;;;;;;;;;;;;;;;;;;1031162;28;20341;-56
2023/02/20 01:57:53;;;;;;;;;;;;;;;;;;1031251;28;20029;-56
2023/02/20 01:58:24;;;;;;;;;;;;;;;;;;1031234;28;19906;-55
2023/02/20 01:58:55;;;;;;;;;;;;;;;;;;1031333;28;20016;-55
2023/02/20 01:59:25;;;;;;;;;;;;;;;;;;1031498;28;19910;-56
2023/02/20 01:59:56;;;;;;;;;;;;;;;;;;1031738;28;19952;-57
2023/02/20 02:00:27;;;;;;;;;;;;;;;;;;1031572;28;19905;-56
2023/02/20 02:00:58;;;;;;;;;;;;;;;;;;1031462;28;19906;-56
2023/02/20 02:01:29;;;;;;;;;;;;;;;;;;1031637;28;19909;-56
2023/02/20 02:02:00;;;;;;;;;;;;;;;;;;1031735;28;20392;-55
2023/02/20 02:02:31;;;;;;;;;;;;;;;;;;1031361;28;19913;-56
2023/02/20 02:03:02;;;;;;;;;;;;;;;;;;1031698;28;19980;-56
2023/02/20 02:03:33;;;;;;;;;;;;;;;;;;1031605;28;20198;-56
2023/02/20 02:04:03;;;;;;;;;;;;;;;;;;1031398;28;19914;-56
2023/02/20 02:04:34;;;;;;;;;;;;;;;;;;1031508;28;19905;-57
2023/02/20 02:05:05;;;;;;;;;;;;;;;;;;1031491;28;19906;-56
2023/02/20 02:05:36;;;;;;;;;;;;;;;;;;1031436;28;20056;-56
2023/02/20 02:06:07;;;;;;;;;;;;;;;;;;1031398;28;19933;-56
2023/02/20 02:06:38;;;;;;;;;;;;;;;;;;1031624;28;19922;-56
2023/02/20 02:07:09;;;;;;;;;;;;;;;;;;1031491;28;19914;-55
2023/02/20 02:07:40;;;;;;;;;;;;;;;;;;1031482;28;19905;-56
2023/02/20 02:08:10;;;;;;;;;;;;;;;;;;1031444;28;20361;-57
2023/02/20 02:08:41;;;;;;;;;;;;;;;;;;1031513;28;19960;-56
2023/02/20 02:09:12;;;;;;;;;;;;;;;;;;1029626;28;20355;-56
2023/02/20 02:09:43;;;;;;;;;;;;;;;;;;1029008;28;19922;-55
2023/02/20 02:10:14;;;;;;;;;;;;;;;;;;1030986;28;20400;-56
2023/02/20 02:10:45;;;;;;;;;;;;;;;;;;1030977;28;20570;-55
2023/02/20 02:11:16;;;;;;;;;;;;;;;;;;1031189;28;20005;-55
2023/02/20 02:11:47;;;;;;;;;;;;;;;;;;1031128;28;20599;-55
2023/02/20 02:12:18;;;;;;;;;;;;;;;;;;1031611;28;19913;-55
2023/02/20 02:12:48;;;;;;;;;;;;;;;;;;1031276;28;19910;-56
2023/02/20 02:13:19;;;;;;;;;;;;;;;;;;1031652;28;19961;-56
2023/02/20 02:13:50;;;;;;;;;;;;;;;;;;1029832;28;20017;-56
2023/02/20 02:14:21;;;;;;;;;;;;;;;;;;1031339;28;19976;-56
2023/02/20 02:14:52;;;;;;;;;;;;;;;;;;1031517;28;19913;-55
2023/02/20 02:15:23;;;;;;;;;;;;;;;;;;1031657;28;20004;-55
2023/02/20 02:15:54;;;;;;;;;;;;;;;;;;1031053;28;20713;-55
2023/02/20 02:16:24;;;;;;;;;;;;;;;;;;1031465;28;19989;-55
2023/02/20 02:16:55;;;;;;;;;;;;;;;;;;1031543;28;20306;-55
2023/02/20 02:17:26;;;;;;;;;;;;;;;;;;1031496;28;20004;-55
2023/02/20 02:17:57;;;;;;;;;;;;;;;;;;1031480;28;19937;-56
2023/02/20 02:18:28;;;;;;;;;;;;;;;;;;1031442;28;19931;-56
2023/02/20 02:18:59;;;;;;;;;;;;;;;;;;1031555;28;19921;-55
2023/02/20 02:19:30;;;;;;;;;;;;;;;;;;1031280;28;19910;-56
2023/02/20 02:20:01;;;;;;;;;;;;;;;;;;1031601;28;19935;-56
2023/02/20 02:20:32;;;;;;;;;;;;;;;;;;1031256;28;19909;-54
2023/02/20 02:21:03;;;;;;;;;;;;;;;;;;1031161;28;19917;-56
2023/02/20 02:21:34;;;;;;;;;;;;;;;;;;1031507;28;19910;-56
2023/02/20 02:22:05;;;;;;;;;;;;;;;;;;1031578;28;19910;-56
2023/02/20 02:22:36;;;;;;;;;;;;;;;;;;1031467;28;19909;-56
2023/02/20 02:23:07;;;;;;;;;;;;;;;;;;1031618;28;20004;-56
2023/02/20 02:23:38;;;;;;;;;;;;;;;;;;1031549;28;20230;-55
2023/02/20 02:24:09;;;;;;;;;;;;;;;;;;1031640;28;19910;-56
2023/02/20 02:24:40;;;;;;;;;;;;;;;;;;1031418;28;20570;-57
2023/02/20 02:25:10;;;;;;;;;;;;;;;;;;1028136;28;19910;-56
2023/02/20 02:25:47;;;;;;;;;;;;;;;;;;1027504;28;19917;-56
2023/02/20 02:26:17;;;;;;;;;;;;;;;;;;1029793;28;20389;-55
2023/02/20 02:26:48;;;;;;;;;;;;;;;;;;1031289;28;20393;-56
2023/02/20 02:27:19;;;;;;;;;;;;;;;;;;1031664;28;19916;-56
2023/02/20 02:27:50;;;;;;;;;;;;;;;;;;1031153;28;20609;-55
2023/02/20 02:28:21;;;;;;;;;;;;;;;;;;1031022;28;20564;-56
2023/02/20 02:28:52;;;;;;;;;;;;;;;;;;1028349;28;19917;-55
2023/02/20 02:29:23;;;;;;;;;;;;;;;;;;1027580;28;20305;-56
2023/02/20 02:29:54;;;;;;;;;;;;;;;;;;1031118;28;20607;-56
2023/02/20 02:30:24;;;;;;;;;;;;;;;;;;1031480;28;19917;-56
2023/02/20 02:30:55;;;;;;;;;;;;;;;;;;1028095;28;20334;-56
2023/02/20 02:31:26;;;;;;;;;;;;;;;;;;1029944;28;19918;-55
2023/02/20 02:31:57;;;;;;;;;;;;;;;;;;1031418;28;19910;-55
2023/02/20 02:32:28;;;;;;;;;;;;;;;;;;1031104;28;19921;-55
2023/02/20 02:32:59;;;;;;;;;;;;;;;;;;1031278;28;19920;-55
2023/02/20 02:33:30;;;;;;;;;;;;;;;;;;1031393;28;19910;-55
2023/02/20 02:34:01;;;;;;;;;;;;;;;;;;1031425;28;19906;-56
2023/02/20 02:34:31;;;;;;;;;;;;;;;;;;1031346;28;20003;-56
2023/02/20 02:35:02;;;;;;;;;;;;;;;;;;1031452;28;19912;-56
2023/02/20 02:35:33;;;;;;;;;;;;;;;;;;1031419;28;19906;-56
2023/02/20 02:36:04;;;;;;;;;;;;;;;;;;1031396;28;19909;-56
2023/02/20 02:36:35;;;;;;;;;;;;;;;;;;1031427;28;20371;-56
2023/02/20 02:37:06;;;;;;;;;;;;;;;;;;1031265;28;19906;-56
2023/02/20 02:37:37;;;;;;;;;;;;;;;;;;1030959;28;20456;-56
2023/02/20 02:38:07;;;;;;;;;;;;;;;;;;1030860;28;19941;-56
2023/02/20 02:38:38;;;;;;;;;;;;;;;;;;1031548;28;19905;-56
2023/02/20 02:39:09;;;;;;;;;;;;;;;;;;1031392;28;19912;-55
2023/02/20 02:39:40;;;;;;;;;;;;;;;;;;1031421;28;20317;-56
2023/02/20 02:40:11;;;;;;;;;;;;;;;;;;1030282;28;19906;-56
2023/02/20 02:40:42;;;;;;;;;;;;;;;;;;1027595;28;20392;-56
2023/02/20 02:41:13;;;;;;;;;;;;;;;;;;1027315;28;20012;-55
2023/02/20 02:41:43;;;;;;;;;;;;;;;;;;1030659;28;20419;-56
2023/02/20 02:42:14;;;;;;;;;;;;;;;;;;1031360;28;19906;-55
2023/02/20 02:42:45;;;;;;;;;;;;;;;;;;1031406;28;19940;-56
2023/02/20 02:43:16;;;;;;;;;;;;;;;;;;1031268;28;19952;-56
2023/02/20 02:43:47;;;;;;;;;;;;;;;;;;1031258;28;19912;-56
2023/02/20 02:44:18;;;;;;;;;;;;;;;;;;1027504;28;19913;-55
2023/02/20 02:44:49;;;;;;;;;;;;;;;;;;1028062;28;19917;-55
2023/02/20 02:45:20;;;;;;;;;;;;;;;;;;1031257;28;19906;-57
2023/02/20 02:45:51;;;;;;;;;;;;;;;;;;1027364;28;19937;-55
2023/02/20 02:46:22;;;;;;;;;;;;;;;;;;1027569;28;19929;-56
2023/02/20 02:46:52;;;;;;;;;;;;;;;;;;1027299;28;20264;-56
2023/02/20 02:47:23;;;;;;;;;;;;;;;;;;1028106;28;20392;-55
2023/02/20 02:47:54;;;;;;;;;;;;;;;;;;1031220;28;19910;-55
2023/02/20 02:48:25;;;;;;;;;;;;;;;;;;1031306;28;20345;-56
2023/02/20 02:48:56;;;;;;;;;;;;;;;;;;1031456;28;19906;-55
2023/02/20 02:49:27;;;;;;;;;;;;;;;;;;1031481;28;20364;-56
2023/02/20 02:49:58;;;;;;;;;;;;;;;;;;1031254;28;20028;-55
2023/02/20 02:50:29;;;;;;;;;;;;;;;;;;1031409;28;19977;-56
2023/02/20 02:50:59;;;;;;;;;;;;;;;;;;1031468;28;19905;-55
2023/02/20 02:51:30;;;;;;;;;;;;;;;;;;1031405;28;19949;-56
2023/02/20 02:52:01;;;;;;;;;;;;;;;;;;1027271;28;19913;-55
2023/02/20 02:52:47;;;;;;;;;;;;;;;;;;1027494;28;19906;-55
2023/02/20 02:53:18;;;;;;;;;;;;;;;;;;1027937;28;19925;-56
2023/02/20 02:53:48;;;;;;;;;;;;;;;;;;1031349;28;19955;-56
2023/02/20 02:54:21;;;;;;;;;;;;;;;;;;1031235;28;19909;-55
2023/02/20 02:54:51;;;;;;;;;;;;;;;;;;1031327;28;20525;-56
2023/02/20 02:55:22;;;;;;;;;;;;;;;;;;1031299;28;20608;-56
2023/02/20 02:55:53;;;;;;;;;;;;;;;;;;1027371;28;19920;-56
2023/02/20 02:56:24;;;;;;;;;;;;;;;;;;1027284;28;20645;-55
2023/02/20 02:56:55;;;;;;;;;;;;;;;;;;1029779;28;19996;-56
2023/02/20 02:57:27;;;;;;;;;;;;;;;;;;1028519;28;20479;-56
2023/02/20 02:57:58;;;;;;;;;;;;;;;;;;1027436;28;19993;-56
2023/02/20 02:58:28;;;;;;;;;;;;;;;;;;1027296;28;19910;-56
2023/02/20 02:58:59;;;;;;;;;;;;;;;;;;1028916;28;19967;-56
2023/02/20 02:59:31;;;;;;;;;;;;;;;;;;1031241;28;19913;-56
2023/02/20 03:00:02;;;;;;;;;;;;;;;;;;1031405;28;20174;-55
2023/02/20 03:00:33;;;;;;;;;;;;;;;;;;1030997;28;19909;-56
2023/02/20 03:01:03;;;;;;;;;;;;;;;;;;1031429;28;19906;-55
2023/02/20 03:01:34;;;;;;;;;;;;;;;;;;1031283;28;20604;-56
2023/02/20 03:02:05;;;;;;;;;;;;;;;;;;1031408;28;19913;-56
2023/02/20 03:02:36;;;;;;;;;;;;;;;;;;1030776;28;20364;-55
2023/02/20 03:03:07;;;;;;;;;;;;;;;;;;1031436;28;19920;-56
2023/02/20 03:03:38;;;;;;;;;;;;;;;;;;1031267;28;20280;-56
2023/02/20 03:04:09;;;;;;;;;;;;;;;;;;1031196;28;19910;-56
2023/02/20 03:04:40;;;;;;;;;;;;;;;;;;1031293;28;19917;-55
2023/02/20 03:05:11;;;;;;;;;;;;;;;;;;1031499;28;19916;-56
2023/02/20 03:05:45;;;;;;;;;;;;;;;;;;1031247;28;19910;-56
2023/02/20 03:06:16;;;;;;;;;;;;;;;;;;1031207;28;19960;-56
2023/02/20 03:06:47;;;;;;;;;;;;;;;;;;1031218;28;19916;-57
2023/02/20 03:07:18;;;;;;;;;;;;;;;;;;1031529;28;19910;-56
2023/02/20 03:07:49;;;;;;;;;;;;;;;;;;1027305;28;19906;-55
2023/02/20 03:08:21;;;;;;;;;;;;;;;;;;1027446;28;19906;-56
2023/02/20 03:08:56;;;;;;;;;;;;;;;;;;1027373;28;20473;-55
2023/02/20 03:09:27;;;;;;;;;;;;;;;;;;1030828;28;19906;-55
2023/02/20 03:09:58;;;;;;;;;;;;;;;;;;1031242;28;19933;-55
2023/02/20 03:10:31;;;;;;;;;;;;;;;;;;1031310;28;19932;-56
2023/02/20 03:11:02;;;;;;;;;;;;;;;;;;1031067;28;19909;-56
2023/02/20 03:11:33;;;;;;;;;;;;;;;;;;1031281;28;19906;-57
2023/02/20 03:12:04;;;;;;;;;;;;;;;;;;1030954;28;20276;-56
2023/02/20 03:12:35;;;;;;;;;;;;;;;;;;1028715;28;19906;-57
2023/02/20 03:13:06;;;;;;;;;;;;;;;;;;1031087;28;19913;-55
2023/02/20 03:15:34;;;;;;;;;;;;;;;;;;1031328;28;19917;-56
2023/02/20 03:16:05;;;;;;;;;;;;;;;;;;1030641;28;19920;-56
2023/02/20 03:16:36;;;;;;;;;;;;;;;;;;1030897;28;19910;-56
2023/02/20 03:17:07;;;;;;;;;;;;;;;;;;1029164;28;20000;-55
2023/02/20 03:17:38;;;;;;;;;;;;;;;;;;1028080;28;19913;-56
2023/02/20 03:18:12;;;;;;;;;;;;;;;;;;1031179;28;19913;-56
2023/02/20 03:18:42;;;;;;;;;;;;;;;;;;1031291;28;19910;-56
2023/02/20 03:19:13;;;;;;;;;;;;;;;;;;1028618;28;20148;-57
2023/02/20 03:19:44;;;;;;;;;;;;;;;;;;1028304;28;19914;-56
2023/02/20 03:20:15;;;;;;;;;;;;;;;;;;1027108;28;20016;-56
2023/02/20 03:20:46;;;;;;;;;;;;;;;;;;1026638;28;20534;-56
2023/02/20 03:21:17;;;;;;;;;;;;;;;;;;1027167;28;19914;-56
2023/02/20 03:21:48;;;;;;;;;;;;;;;;;;1027250;28;20301;-57
2023/02/20 03:22:19;;;;;;;;;;;;;;;;;;1027236;28;19906;-55
2023/02/20 03:22:50;;;;;;;;;;;;;;;;;;1028530;28;19917;-56
2023/02/20 03:23:21;;;;;;;;;;;;;;;;;;1029139;28;20363;-55
2023/02/20 03:23:51;;;;;;;;;;;;;;;;;;1027314;28;19941;-55
2023/02/20 03:24:22;;;;;;;;;;;;;;;;;;1027296;28;20546;-56
2023/02/20 03:24:56;;;;;;;;;;;;;;;;;;1028040;28;19933;-56
2023/02/20 03:25:27;;;;;;;;;;;;;;;;;;1031124;28;19964;-55
2023/02/20 03:25:58;;;;;;;;;;;;;;;;;;1031376;28;19968;-56
2023/02/20 03:26:29;;;;;;;;;;;;;;;;;;1031119;28;19910;-56
2023/02/20 03:27:00;;;;;;;;;;;;;;;;;;1031230;28;20000;-56
2023/02/20 03:27:37;;;;;;;;;;;;;;;;;;1029952;28;19936;-56
2023/02/20 03:28:08;;;;;;;;;;;;;;;;;;1027276;28;19976;-55
2023/02/20 03:28:39;;;;;;;;;;;;;;;;;;1028567;28;19913;-56
2023/02/20 03:29:10;;;;;;;;;;;;;;;;;;1028043;28;19918;-55
2023/02/20 03:29:41;;;;;;;;;;;;;;;;;;1031277;28;19997;-56
2023/02/20 03:30:12;;;;;;;;;;;;;;;;;;1031190;28;20305;-56
2023/02/20 03:30:43;;;;;;;;;;;;;;;;;;1031258;28;20020;-56
2023/02/20 03:31:14;;;;;;;;;;;;;;;;;;1031064;28;20011;-55
2023/02/20 03:31:44;;;;;;;;;;;;;;;;;;1031136;28;20261;-56
2023/02/20 03:43:50;;;;;;;;;;;;;;;;;;1031109;28;20055;-55
2023/02/20 03:44:21;;;;;;;;;;;;;;;;;;1031068;28;19905;-55
2023/02/20 03:44:52;;;;;;;;;;;;;;;;;;1031021;28;20292;-56
2023/02/20 03:45:23;;;;;;;;;;;;;;;;;;1031134;28;19937;-56